sensor_id;sensor_type;location;lat;lon;timestamp;P1;durP1;ratioP1;P2;durP2;ratioP2
44578;SDS011;37422;51.402;0.016;2022-08-19T00:00:14;4.32;;;2.42;;
44578;SDS011;37422;51.402;0.016;2022-08-19T00:02:45;4.78;;;2.72;;
44578;SDS011;37422;51.402;0.016;2022-08-19T00:05:17;9.00;;;3.00;;
44578;SDS011;37422;51.402;0.016;2022-08-19T00:07:51;6.82;;;2.72;;
44578;SDS011;37422;51.402;0.016;2022-08-19T00:10:23;9.27;;;2.70;;
44578;SDS011;37422;51.402;0.016;2022-08-19T00:12:51;6.55;;;2.90;;
44578;SDS011;37422;51.402;0.016;2022-08-19T00:15:20;6.20;;;2.67;;
44578;SDS011;37422;51.402;0.016;2022-08-19T00:17:49;7.63;;;3.25;;
44578;SDS011;37422;51.402;0.016;2022-08-19T00:20:18;2.95;;;2.50;;
44578;SDS011;37422;51.402;0.016;2022-08-19T00:22:48;10.35;;;2.50;;
44578;SDS011;37422;51.402;0.016;2022-08-19T00:25:17;4.13;;;2.45;;
44578;SDS011;37422;51.402;0.016;2022-08-19T00:27:56;7.97;;;3.65;;
44578;SDS011;37422;51.402;0.016;2022-08-19T00:30:26;10.32;;;3.60;;
44578;SDS011;37422;51.402;0.016;2022-08-19T00:32:56;7.43;;;2.78;;
44578;SDS011;37422;51.402;0.016;2022-08-19T00:35:25;7.50;;;2.75;;
44578;SDS011;37422;51.402;0.016;2022-08-19T00:37:55;6.65;;;3.03;;
44578;SDS011;37422;51.402;0.016;2022-08-19T00:40:25;6.90;;;3.05;;
44578;SDS011;37422;51.402;0.016;2022-08-19T00:42:53;10.13;;;3.33;;
44578;SDS011;37422;51.402;0.016;2022-08-19T00:45:25;6.72;;;3.28;;
44578;SDS011;37422;51.402;0.016;2022-08-19T00:47:55;6.00;;;2.53;;
44578;SDS011;37422;51.402;0.016;2022-08-19T00:50:22;10.40;;;3.08;;
44578;SDS011;37422;51.402;0.016;2022-08-19T00:52:50;8.35;;;2.78;;
44578;SDS011;37422;51.402;0.016;2022-08-19T00:55:24;5.03;;;2.70;;
44578;SDS011;37422;51.402;0.016;2022-08-19T00:57:57;5.28;;;2.53;;
44578;SDS011;37422;51.402;0.016;2022-08-19T01:00:32;7.47;;;2.80;;
44578;SDS011;37422;51.402;0.016;2022-08-19T01:03:07;6.75;;;3.10;;
44578;SDS011;37422;51.402;0.016;2022-08-19T01:05:38;6.25;;;3.20;;
44578;SDS011;37422;51.402;0.016;2022-08-19T01:08:11;7.28;;;3.03;;
44578;SDS011;37422;51.402;0.016;2022-08-19T01:10:49;5.50;;;3.20;;
44578;SDS011;37422;51.402;0.016;2022-08-19T01:13:21;6.38;;;3.40;;
44578;SDS011;37422;51.402;0.016;2022-08-19T01:16:15;6.90;;;3.25;;
44578;SDS011;37422;51.402;0.016;2022-08-19T01:18:45;8.85;;;3.28;;
44578;SDS011;37422;51.402;0.016;2022-08-19T01:21:16;4.47;;;2.58;;
44578;SDS011;37422;51.402;0.016;2022-08-19T01:23:48;7.32;;;2.88;;
44578;SDS011;37422;51.402;0.016;2022-08-19T01:26:21;7.43;;;3.03;;
44578;SDS011;37422;51.402;0.016;2022-08-19T01:28:53;9.48;;;3.63;;
44578;SDS011;37422;51.402;0.016;2022-08-19T01:31:27;8.57;;;3.05;;
44578;SDS011;37422;51.402;0.016;2022-08-19T01:34:05;11.30;;;3.40;;
44578;SDS011;37422;51.402;0.016;2022-08-19T01:36:37;5.60;;;3.22;;
44578;SDS011;37422;51.402;0.016;2022-08-19T01:39:18;6.95;;;3.80;;
44578;SDS011;37422;51.402;0.016;2022-08-19T01:41:49;9.25;;;4.00;;
44578;SDS011;37422;51.402;0.016;2022-08-19T01:44:19;9.57;;;4.10;;
44578;SDS011;37422;51.402;0.016;2022-08-19T01:46:51;8.50;;;3.95;;
44578;SDS011;37422;51.402;0.016;2022-08-19T01:49:20;10.60;;;4.28;;
44578;SDS011;37422;51.402;0.016;2022-08-19T01:51:49;10.93;;;4.13;;
44578;SDS011;37422;51.402;0.016;2022-08-19T01:54:22;9.23;;;4.38;;
44578;SDS011;37422;51.402;0.016;2022-08-19T01:56:55;10.63;;;5.07;;
44578;SDS011;37422;51.402;0.016;2022-08-19T01:59:30;10.27;;;4.80;;
44578;SDS011;37422;51.402;0.016;2022-08-19T02:02:02;10.18;;;5.32;;
44578;SDS011;37422;51.402;0.016;2022-08-19T02:04:33;11.68;;;4.85;;
44578;SDS011;37422;51.402;0.016;2022-08-19T02:07:02;11.15;;;5.18;;
44578;SDS011;37422;51.402;0.016;2022-08-19T02:09:31;13.27;;;5.50;;
44578;SDS011;37422;51.402;0.016;2022-08-19T02:12:01;15.20;;;6.13;;
44578;SDS011;37422;51.402;0.016;2022-08-19T02:14:29;12.77;;;5.45;;
44578;SDS011;37422;51.402;0.016;2022-08-19T02:16:57;14.77;;;5.07;;
44578;SDS011;37422;51.402;0.016;2022-08-19T02:19:25;15.40;;;5.53;;
44578;SDS011;37422;51.402;0.016;2022-08-19T02:21:52;11.65;;;5.22;;
44578;SDS011;37422;51.402;0.016;2022-08-19T02:24:20;9.90;;;5.18;;
44578;SDS011;37422;51.402;0.016;2022-08-19T02:26:49;11.65;;;5.32;;
44578;SDS011;37422;51.402;0.016;2022-08-19T02:29:16;13.63;;;5.68;;
44578;SDS011;37422;51.402;0.016;2022-08-19T02:31:44;10.95;;;5.47;;
44578;SDS011;37422;51.402;0.016;2022-08-19T02:34:12;13.57;;;5.78;;
44578;SDS011;37422;51.402;0.016;2022-08-19T02:39:17;12.02;;;5.25;;
44578;SDS011;37422;51.402;0.016;2022-08-19T02:41:45;13.45;;;5.40;;
44578;SDS011;37422;51.402;0.016;2022-08-19T02:44:13;13.32;;;5.20;;
44578;SDS011;37422;51.402;0.016;2022-08-19T02:46:56;11.13;;;5.35;;
44578;SDS011;37422;51.402;0.016;2022-08-19T02:49:26;11.23;;;5.40;;
44578;SDS011;37422;51.402;0.016;2022-08-19T02:51:54;11.88;;;4.90;;
44578;SDS011;37422;51.402;0.016;2022-08-19T02:54:23;10.40;;;4.75;;
44578;SDS011;37422;51.402;0.016;2022-08-19T02:56:50;15.50;;;4.40;;
44578;SDS011;37422;51.402;0.016;2022-08-19T02:59:18;9.63;;;4.30;;
44578;SDS011;37422;51.402;0.016;2022-08-19T03:01:50;10.07;;;5.10;;
44578;SDS011;37422;51.402;0.016;2022-08-19T03:04:19;12.68;;;4.90;;
44578;SDS011;37422;51.402;0.016;2022-08-19T03:06:47;11.07;;;4.70;;
44578;SDS011;37422;51.402;0.016;2022-08-19T03:09:26;7.67;;;4.40;;
44578;SDS011;37422;51.402;0.016;2022-08-19T03:11:54;9.43;;;4.63;;
44578;SDS011;37422;51.402;0.016;2022-08-19T03:16:52;9.60;;;4.28;;
44578;SDS011;37422;51.402;0.016;2022-08-19T03:19:19;8.25;;;4.28;;
44578;SDS011;37422;51.402;0.016;2022-08-19T03:21:48;10.27;;;4.28;;
44578;SDS011;37422;51.402;0.016;2022-08-19T03:24:17;9.90;;;4.60;;
44578;SDS011;37422;51.402;0.016;2022-08-19T03:26:47;10.88;;;5.30;;
44578;SDS011;37422;51.402;0.016;2022-08-19T03:29:18;11.95;;;4.45;;
44578;SDS011;37422;51.402;0.016;2022-08-19T03:31:56;13.00;;;4.78;;
44578;SDS011;37422;51.402;0.016;2022-08-19T03:34:28;10.95;;;4.43;;
44578;SDS011;37422;51.402;0.016;2022-08-19T03:36:58;11.73;;;4.43;;
44578;SDS011;37422;51.402;0.016;2022-08-19T03:39:30;9.60;;;4.22;;
44578;SDS011;37422;51.402;0.016;2022-08-19T03:42:05;7.75;;;4.40;;
44578;SDS011;37422;51.402;0.016;2022-08-19T03:44:53;13.75;;;5.45;;
44578;SDS011;37422;51.402;0.016;2022-08-19T03:47:21;9.55;;;5.07;;
44578;SDS011;37422;51.402;0.016;2022-08-19T03:49:48;13.23;;;4.97;;
44578;SDS011;37422;51.402;0.016;2022-08-19T03:52:16;14.05;;;5.88;;
44578;SDS011;37422;51.402;0.016;2022-08-19T03:54:44;11.93;;;5.97;;
44578;SDS011;37422;51.402;0.016;2022-08-19T03:57:12;16.55;;;6.75;;
44578;SDS011;37422;51.402;0.016;2022-08-19T03:59:42;11.63;;;6.00;;
44578;SDS011;37422;51.402;0.016;2022-08-19T04:02:11;10.98;;;5.75;;
44578;SDS011;37422;51.402;0.016;2022-08-19T04:04:40;13.93;;;5.75;;
44578;SDS011;37422;51.402;0.016;2022-08-19T04:07:12;11.68;;;5.68;;
44578;SDS011;37422;51.402;0.016;2022-08-19T04:09:43;10.85;;;5.60;;
44578;SDS011;37422;51.402;0.016;2022-08-19T04:12:10;14.10;;;6.78;;
44578;SDS011;37422;51.402;0.016;2022-08-19T04:14:38;13.10;;;7.05;;
44578;SDS011;37422;51.402;0.016;2022-08-19T04:17:06;12.63;;;5.85;;
44578;SDS011;37422;51.402;0.016;2022-08-19T04:19:34;13.32;;;6.40;;
44578;SDS011;37422;51.402;0.016;2022-08-19T04:22:03;14.65;;;6.72;;
44578;SDS011;37422;51.402;0.016;2022-08-19T04:24:34;13.93;;;7.00;;
44578;SDS011;37422;51.402;0.016;2022-08-19T04:27:02;12.80;;;6.82;;
44578;SDS011;37422;51.402;0.016;2022-08-19T04:29:31;14.35;;;6.68;;
44578;SDS011;37422;51.402;0.016;2022-08-19T04:31:59;10.63;;;5.68;;
44578;SDS011;37422;51.402;0.016;2022-08-19T04:34:36;11.88;;;6.13;;
44578;SDS011;37422;51.402;0.016;2022-08-19T04:37:32;11.65;;;5.90;;
44578;SDS011;37422;51.402;0.016;2022-08-19T04:40:03;11.55;;;5.88;;
44578;SDS011;37422;51.402;0.016;2022-08-19T04:42:51;13.75;;;6.03;;
44578;SDS011;37422;51.402;0.016;2022-08-19T04:45:19;12.85;;;6.03;;
44578;SDS011;37422;51.402;0.016;2022-08-19T04:47:49;10.50;;;6.15;;
44578;SDS011;37422;51.402;0.016;2022-08-19T04:50:43;12.55;;;5.88;;
44578;SDS011;37422;51.402;0.016;2022-08-19T04:53:11;10.05;;;5.97;;
44578;SDS011;37422;51.402;0.016;2022-08-19T04:55:41;11.02;;;6.00;;
44578;SDS011;37422;51.402;0.016;2022-08-19T04:58:09;12.88;;;6.63;;
44578;SDS011;37422;51.402;0.016;2022-08-19T05:00:38;13.05;;;5.68;;
44578;SDS011;37422;51.402;0.016;2022-08-19T05:03:07;10.23;;;5.73;;
44578;SDS011;37422;51.402;0.016;2022-08-19T05:05:43;11.15;;;6.40;;
44578;SDS011;37422;51.402;0.016;2022-08-19T05:08:16;13.25;;;6.25;;
44578;SDS011;37422;51.402;0.016;2022-08-19T05:10:56;11.45;;;5.43;;
44578;SDS011;37422;51.402;0.016;2022-08-19T05:13:24;11.35;;;5.75;;
44578;SDS011;37422;51.402;0.016;2022-08-19T05:15:59;12.98;;;6.75;;
44578;SDS011;37422;51.402;0.016;2022-08-19T05:18:27;9.82;;;5.28;;
44578;SDS011;37422;51.402;0.016;2022-08-19T05:21:16;13.35;;;5.40;;
44578;SDS011;37422;51.402;0.016;2022-08-19T05:24:05;12.85;;;5.70;;
44578;SDS011;37422;51.402;0.016;2022-08-19T05:26:36;9.70;;;5.55;;
44578;SDS011;37422;51.402;0.016;2022-08-19T05:29:07;11.80;;;5.45;;
44578;SDS011;37422;51.402;0.016;2022-08-19T05:31:37;9.97;;;4.67;;
44578;SDS011;37422;51.402;0.016;2022-08-19T05:34:08;11.13;;;5.10;;
44578;SDS011;37422;51.402;0.016;2022-08-19T05:36:46;14.15;;;4.75;;
44578;SDS011;37422;51.402;0.016;2022-08-19T05:39:16;9.63;;;4.30;;
44578;SDS011;37422;51.402;0.016;2022-08-19T05:41:46;9.02;;;3.40;;
44578;SDS011;37422;51.402;0.016;2022-08-19T05:44:17;6.53;;;2.88;;
44578;SDS011;37422;51.402;0.016;2022-08-19T05:46:47;8.68;;;3.08;;
44578;SDS011;37422;51.402;0.016;2022-08-19T05:49:15;5.93;;;2.75;;
44578;SDS011;37422;51.402;0.016;2022-08-19T05:51:45;5.40;;;2.30;;
44578;SDS011;37422;51.402;0.016;2022-08-19T05:56:41;5.18;;;1.80;;
44578;SDS011;37422;51.402;0.016;2022-08-19T05:59:09;3.00;;;2.00;;
44578;SDS011;37422;51.402;0.016;2022-08-19T06:01:38;2.53;;;1.70;;
44578;SDS011;37422;51.402;0.016;2022-08-19T06:04:07;3.00;;;1.53;;
44578;SDS011;37422;51.402;0.016;2022-08-19T06:06:35;2.17;;;1.48;;
44578;SDS011;37422;51.402;0.016;2022-08-19T06:09:04;5.10;;;2.15;;
44578;SDS011;37422;51.402;0.016;2022-08-19T06:14:22;4.78;;;1.52;;
44578;SDS011;37422;51.402;0.016;2022-08-19T06:16:54;6.93;;;1.52;;
44578;SDS011;37422;51.402;0.016;2022-08-19T06:19:22;4.72;;;1.27;;
44578;SDS011;37422;51.402;0.016;2022-08-19T06:21:52;3.10;;;1.17;;
44578;SDS011;37422;51.402;0.016;2022-08-19T06:24:27;4.53;;;1.23;;
44578;SDS011;37422;51.402;0.016;2022-08-19T06:26:56;3.42;;;0.95;;
44578;SDS011;37422;51.402;0.016;2022-08-19T06:29:27;5.63;;;1.45;;
44578;SDS011;37422;51.402;0.016;2022-08-19T06:31:57;1.98;;;1.20;;
44578;SDS011;37422;51.402;0.016;2022-08-19T06:34:28;5.53;;;1.10;;
44578;SDS011;37422;51.402;0.016;2022-08-19T06:37:00;1.05;;;0.90;;
44578;SDS011;37422;51.402;0.016;2022-08-19T06:39:30;1.15;;;0.80;;
44578;SDS011;37422;51.402;0.016;2022-08-19T06:42:02;1.02;;;0.90;;
44578;SDS011;37422;51.402;0.016;2022-08-19T06:44:41;2.45;;;1.08;;
44578;SDS011;37422;51.402;0.016;2022-08-19T06:47:16;5.25;;;1.00;;
44578;SDS011;37422;51.402;0.016;2022-08-19T06:49:58;3.10;;;1.42;;
44578;SDS011;37422;51.402;0.016;2022-08-19T06:52:32;6.15;;;1.45;;
44578;SDS011;37422;51.402;0.016;2022-08-19T06:55:04;2.72;;;0.98;;
44578;SDS011;37422;51.402;0.016;2022-08-19T06:57:33;1.83;;;1.17;;
44578;SDS011;37422;51.402;0.016;2022-08-19T07:00:11;2.42;;;0.95;;
44578;SDS011;37422;51.402;0.016;2022-08-19T07:02:44;5.07;;;1.33;;
44578;SDS011;37422;51.402;0.016;2022-08-19T07:05:24;3.22;;;1.17;;
44578;SDS011;37422;51.402;0.016;2022-08-19T07:07:52;6.47;;;1.00;;
44578;SDS011;37422;51.402;0.016;2022-08-19T07:10:23;5.65;;;1.25;;
44578;SDS011;37422;51.402;0.016;2022-08-19T07:12:55;8.82;;;1.95;;
44578;SDS011;37422;51.402;0.016;2022-08-19T07:15:23;8.07;;;1.73;;
44578;SDS011;37422;51.402;0.016;2022-08-19T07:18:09;3.13;;;1.30;;
44578;SDS011;37422;51.402;0.016;2022-08-19T07:20:44;6.55;;;1.85;;
44578;SDS011;37422;51.402;0.016;2022-08-19T07:23:12;3.95;;;1.02;;
44578;SDS011;37422;51.402;0.016;2022-08-19T07:25:45;6.38;;;1.25;;
44578;SDS011;37422;51.402;0.016;2022-08-19T07:28:20;6.13;;;1.77;;
44578;SDS011;37422;51.402;0.016;2022-08-19T07:30:54;4.15;;;1.20;;
44578;SDS011;37422;51.402;0.016;2022-08-19T07:33:26;2.55;;;0.93;;
44578;SDS011;37422;51.402;0.016;2022-08-19T07:36:06;3.17;;;0.93;;
44578;SDS011;37422;51.402;0.016;2022-08-19T07:38:40;1.45;;;0.90;;
44578;SDS011;37422;51.402;0.016;2022-08-19T07:41:11;1.95;;;1.05;;
44578;SDS011;37422;51.402;0.016;2022-08-19T07:43:45;6.38;;;1.02;;
44578;SDS011;37422;51.402;0.016;2022-08-19T07:46:13;6.35;;;1.02;;
44578;SDS011;37422;51.402;0.016;2022-08-19T07:48:42;1.45;;;0.60;;
44578;SDS011;37422;51.402;0.016;2022-08-19T07:51:15;2.38;;;0.70;;
44578;SDS011;37422;51.402;0.016;2022-08-19T07:54:03;1.55;;;0.70;;
44578;SDS011;37422;51.402;0.016;2022-08-19T07:56:31;7.43;;;1.20;;
44578;SDS011;37422;51.402;0.016;2022-08-19T07:58:58;3.08;;;0.77;;
44578;SDS011;37422;51.402;0.016;2022-08-19T08:01:27;3.40;;;0.80;;
44578;SDS011;37422;51.402;0.016;2022-08-19T08:03:56;5.22;;;0.65;;
44578;SDS011;37422;51.402;0.016;2022-08-19T08:06:43;5.60;;;0.98;;
44578;SDS011;37422;51.402;0.016;2022-08-19T08:09:34;1.42;;;1.00;;
44578;SDS011;37422;51.402;0.016;2022-08-19T08:12:06;2.38;;;0.95;;
44578;SDS011;37422;51.402;0.016;2022-08-19T08:15:03;2.08;;;0.93;;
44578;SDS011;37422;51.402;0.016;2022-08-19T08:17:34;3.97;;;1.05;;
44578;SDS011;37422;51.402;0.016;2022-08-19T08:20:15;1.85;;;1.00;;
44578;SDS011;37422;51.402;0.016;2022-08-19T08:22:44;3.20;;;0.80;;
44578;SDS011;37422;51.402;0.016;2022-08-19T08:25:38;2.22;;;0.90;;
44578;SDS011;37422;51.402;0.016;2022-08-19T08:28:09;5.55;;;1.23;;
44578;SDS011;37422;51.402;0.016;2022-08-19T08:30:44;5.45;;;1.08;;
44578;SDS011;37422;51.402;0.016;2022-08-19T08:33:18;0.93;;;0.90;;
44578;SDS011;37422;51.402;0.016;2022-08-19T08:36:09;4.07;;;0.80;;
44578;SDS011;37422;51.402;0.016;2022-08-19T08:38:39;4.25;;;1.23;;
44578;SDS011;37422;51.402;0.016;2022-08-19T08:41:15;2.63;;;1.27;;
44578;SDS011;37422;51.402;0.016;2022-08-19T08:43:57;3.80;;;1.15;;
44578;SDS011;37422;51.402;0.016;2022-08-19T08:51:42;2.58;;;0.80;;
44578;SDS011;37422;51.402;0.016;2022-08-19T08:54:34;1.52;;;0.75;;
44578;SDS011;37422;51.402;0.016;2022-08-19T09:00:14;2.97;;;0.95;;
44578;SDS011;37422;51.402;0.016;2022-08-19T09:02:44;5.28;;;1.10;;
44578;SDS011;37422;51.402;0.016;2022-08-19T09:05:18;2.90;;;0.90;;
44578;SDS011;37422;51.402;0.016;2022-08-19T09:08:00;2.28;;;1.27;;
44578;SDS011;37422;51.402;0.016;2022-08-19T09:16:22;3.50;;;0.98;;
44578;SDS011;37422;51.402;0.016;2022-08-19T09:18:55;4.88;;;1.70;;
44578;SDS011;37422;51.402;0.016;2022-08-19T09:21:25;4.75;;;1.00;;
44578;SDS011;37422;51.402;0.016;2022-08-19T09:24:02;2.22;;;0.95;;
44578;SDS011;37422;51.402;0.016;2022-08-19T09:26:32;2.88;;;0.93;;
44578;SDS011;37422;51.402;0.016;2022-08-19T09:29:18;4.80;;;1.25;;
44578;SDS011;37422;51.402;0.016;2022-08-19T09:31:50;6.40;;;1.02;;
44578;SDS011;37422;51.402;0.016;2022-08-19T09:34:22;2.70;;;0.88;;
44578;SDS011;37422;51.402;0.016;2022-08-19T09:36:50;5.25;;;0.95;;
44578;SDS011;37422;51.402;0.016;2022-08-19T09:39:25;3.53;;;1.00;;
44578;SDS011;37422;51.402;0.016;2022-08-19T09:42:02;3.50;;;1.10;;
44578;SDS011;37422;51.402;0.016;2022-08-19T09:44:43;3.97;;;1.00;;
44578;SDS011;37422;51.402;0.016;2022-08-19T09:47:12;3.72;;;1.00;;
44578;SDS011;37422;51.402;0.016;2022-08-19T09:49:46;6.82;;;1.23;;
44578;SDS011;37422;51.402;0.016;2022-08-19T09:52:17;8.07;;;1.45;;
44578;SDS011;37422;51.402;0.016;2022-08-19T09:54:59;4.88;;;0.98;;
44578;SDS011;37422;51.402;0.016;2022-08-19T09:57:34;5.00;;;1.33;;
44578;SDS011;37422;51.402;0.016;2022-08-19T10:00:05;7.65;;;1.17;;
44578;SDS011;37422;51.402;0.016;2022-08-19T10:02:37;2.85;;;0.93;;
44578;SDS011;37422;51.402;0.016;2022-08-19T10:05:05;4.18;;;0.80;;
44578;SDS011;37422;51.402;0.016;2022-08-19T10:07:57;5.05;;;0.80;;
44578;SDS011;37422;51.402;0.016;2022-08-19T10:10:34;6.43;;;1.08;;
44578;SDS011;37422;51.402;0.016;2022-08-19T10:13:09;4.07;;;0.77;;
44578;SDS011;37422;51.402;0.016;2022-08-19T10:15:38;3.27;;;1.07;;
44578;SDS011;37422;51.402;0.016;2022-08-19T10:18:15;1.85;;;0.90;;
44578;SDS011;37422;51.402;0.016;2022-08-19T10:20:47;2.55;;;1.00;;
44578;SDS011;37422;51.402;0.016;2022-08-19T10:23:18;3.35;;;1.05;;
44578;SDS011;37422;51.402;0.016;2022-08-19T10:25:50;4.13;;;1.08;;
44578;SDS011;37422;51.402;0.016;2022-08-19T10:28:18;5.45;;;1.20;;
44578;SDS011;37422;51.402;0.016;2022-08-19T10:30:46;11.52;;;1.92;;
44578;SDS011;37422;51.402;0.016;2022-08-19T10:33:14;6.70;;;1.20;;
44578;SDS011;37422;51.402;0.016;2022-08-19T10:36:03;8.18;;;2.55;;
44578;SDS011;37422;51.402;0.016;2022-08-19T10:38:35;4.85;;;1.13;;
44578;SDS011;37422;51.402;0.016;2022-08-19T10:41:08;5.75;;;1.23;;
44578;SDS011;37422;51.402;0.016;2022-08-19T10:43:38;5.78;;;1.70;;
44578;SDS011;37422;51.402;0.016;2022-08-19T10:46:09;6.05;;;1.13;;
44578;SDS011;37422;51.402;0.016;2022-08-19T10:48:42;6.35;;;1.13;;
44578;SDS011;37422;51.402;0.016;2022-08-19T10:51:11;6.85;;;1.83;;
44578;SDS011;37422;51.402;0.016;2022-08-19T10:53:58;7.53;;;1.20;;
44578;SDS011;37422;51.402;0.016;2022-08-19T10:56:27;10.05;;;1.95;;
44578;SDS011;37422;51.402;0.016;2022-08-19T10:59:15;5.32;;;1.65;;
44578;SDS011;37422;51.402;0.016;2022-08-19T11:01:44;6.70;;;2.00;;
44578;SDS011;37422;51.402;0.016;2022-08-19T11:04:17;8.85;;;1.90;;
44578;SDS011;37422;51.402;0.016;2022-08-19T11:06:55;6.47;;;1.60;;
44578;SDS011;37422;51.402;0.016;2022-08-19T11:09:24;14.77;;;2.20;;
44578;SDS011;37422;51.402;0.016;2022-08-19T11:12:01;8.75;;;1.90;;
44578;SDS011;37422;51.402;0.016;2022-08-19T11:14:31;6.78;;;2.13;;
44578;SDS011;37422;51.402;0.016;2022-08-19T11:17:01;8.90;;;1.55;;
44578;SDS011;37422;51.402;0.016;2022-08-19T11:19:30;6.22;;;1.55;;
44578;SDS011;37422;51.402;0.016;2022-08-19T11:22:02;5.97;;;1.40;;
44578;SDS011;37422;51.402;0.016;2022-08-19T11:24:35;2.88;;;0.95;;
44578;SDS011;37422;51.402;0.016;2022-08-19T11:27:05;6.28;;;1.40;;
44578;SDS011;37422;51.402;0.016;2022-08-19T11:29:37;5.10;;;1.40;;
44578;SDS011;37422;51.402;0.016;2022-08-19T11:32:07;8.38;;;1.77;;
44578;SDS011;37422;51.402;0.016;2022-08-19T11:34:39;6.13;;;1.55;;
44578;SDS011;37422;51.402;0.016;2022-08-19T11:37:13;8.63;;;2.40;;
44578;SDS011;37422;51.402;0.016;2022-08-19T11:39:41;7.55;;;1.75;;
44578;SDS011;37422;51.402;0.016;2022-08-19T11:42:19;8.25;;;1.85;;
44578;SDS011;37422;51.402;0.016;2022-08-19T11:45:06;11.73;;;1.90;;
44578;SDS011;37422;51.402;0.016;2022-08-19T11:47:35;7.80;;;1.75;;
44578;SDS011;37422;51.402;0.016;2022-08-19T11:50:07;6.85;;;2.03;;
44578;SDS011;37422;51.402;0.016;2022-08-19T11:52:38;8.23;;;2.20;;
44578;SDS011;37422;51.402;0.016;2022-08-19T11:55:06;12.73;;;2.70;;
44578;SDS011;37422;51.402;0.016;2022-08-19T11:57:38;8.55;;;2.28;;
44578;SDS011;37422;51.402;0.016;2022-08-19T12:00:08;7.55;;;2.42;;
44578;SDS011;37422;51.402;0.016;2022-08-19T12:02:43;9.77;;;2.22;;
44578;SDS011;37422;51.402;0.016;2022-08-19T12:05:11;7.63;;;2.22;;
44578;SDS011;37422;51.402;0.016;2022-08-19T12:07:39;10.95;;;3.00;;
44578;SDS011;37422;51.402;0.016;2022-08-19T12:10:10;11.52;;;2.72;;
44578;SDS011;37422;51.402;0.016;2022-08-19T12:12:37;9.30;;;2.30;;
44578;SDS011;37422;51.402;0.016;2022-08-19T12:15:26;7.90;;;2.35;;
44578;SDS011;37422;51.402;0.016;2022-08-19T12:18:05;7.68;;;2.80;;
44578;SDS011;37422;51.402;0.016;2022-08-19T12:23:09;9.77;;;2.90;;
44578;SDS011;37422;51.402;0.016;2022-08-19T12:25:44;12.25;;;2.50;;
44578;SDS011;37422;51.402;0.016;2022-08-19T12:28:18;11.35;;;2.67;;
44578;SDS011;37422;51.402;0.016;2022-08-19T12:30:47;8.43;;;3.17;;
44578;SDS011;37422;51.402;0.016;2022-08-19T12:33:20;13.10;;;2.78;;
44578;SDS011;37422;51.402;0.016;2022-08-19T12:36:02;14.82;;;2.72;;
44578;SDS011;37422;51.402;0.016;2022-08-19T12:38:33;10.60;;;2.83;;
44578;SDS011;37422;51.402;0.016;2022-08-19T12:41:03;9.27;;;2.00;;
44578;SDS011;37422;51.402;0.016;2022-08-19T12:43:35;9.65;;;2.60;;
44578;SDS011;37422;51.402;0.016;2022-08-19T12:48:37;9.90;;;2.40;;
44578;SDS011;37422;51.402;0.016;2022-08-19T12:51:11;8.10;;;1.73;;
44578;SDS011;37422;51.402;0.016;2022-08-19T12:53:49;9.98;;;2.13;;
44578;SDS011;37422;51.402;0.016;2022-08-19T12:56:27;10.70;;;2.28;;
44578;SDS011;37422;51.402;0.016;2022-08-19T12:58:55;11.75;;;2.47;;
44578;SDS011;37422;51.402;0.016;2022-08-19T13:03:55;12.07;;;2.97;;
44578;SDS011;37422;51.402;0.016;2022-08-19T13:06:23;12.10;;;2.42;;
44578;SDS011;37422;51.402;0.016;2022-08-19T13:08:54;12.00;;;2.67;;
44578;SDS011;37422;51.402;0.016;2022-08-19T13:11:26;11.18;;;2.50;;
44578;SDS011;37422;51.402;0.016;2022-08-19T13:13:54;14.75;;;3.05;;
44578;SDS011;37422;51.402;0.016;2022-08-19T13:16:23;10.82;;;2.42;;
44578;SDS011;37422;51.402;0.016;2022-08-19T13:18:51;14.85;;;2.45;;
44578;SDS011;37422;51.402;0.016;2022-08-19T13:21:20;12.13;;;2.72;;
44578;SDS011;37422;51.402;0.016;2022-08-19T13:23:50;10.93;;;1.90;;
44578;SDS011;37422;51.402;0.016;2022-08-19T13:26:21;10.38;;;1.90;;
44578;SDS011;37422;51.402;0.016;2022-08-19T13:28:49;11.32;;;2.55;;
44578;SDS011;37422;51.402;0.016;2022-08-19T13:31:38;9.45;;;2.13;;
44578;SDS011;37422;51.402;0.016;2022-08-19T13:34:31;9.93;;;2.90;;
44578;SDS011;37422;51.402;0.016;2022-08-19T13:37:01;12.60;;;2.42;;
44578;SDS011;37422;51.402;0.016;2022-08-19T13:39:35;12.20;;;2.30;;
44578;SDS011;37422;51.402;0.016;2022-08-19T13:42:03;11.68;;;2.97;;
44578;SDS011;37422;51.402;0.016;2022-08-19T13:44:31;9.95;;;2.67;;
44578;SDS011;37422;51.402;0.016;2022-08-19T13:47:00;10.75;;;2.50;;
44578;SDS011;37422;51.402;0.016;2022-08-19T13:49:33;9.85;;;2.13;;
44578;SDS011;37422;51.402;0.016;2022-08-19T13:52:03;13.02;;;2.95;;
44578;SDS011;37422;51.402;0.016;2022-08-19T13:54:32;8.77;;;1.70;;
44578;SDS011;37422;51.402;0.016;2022-08-19T13:57:03;10.63;;;2.45;;
44578;SDS011;37422;51.402;0.016;2022-08-19T13:59:31;15.15;;;2.92;;
44578;SDS011;37422;51.402;0.016;2022-08-19T14:02:00;7.78;;;2.42;;
44578;SDS011;37422;51.402;0.016;2022-08-19T14:04:28;8.93;;;2.42;;
44578;SDS011;37422;51.402;0.016;2022-08-19T14:06:57;11.38;;;2.20;;
44578;SDS011;37422;51.402;0.016;2022-08-19T14:09:25;10.35;;;2.35;;
44578;SDS011;37422;51.402;0.016;2022-08-19T14:11:54;9.95;;;2.50;;
44578;SDS011;37422;51.402;0.016;2022-08-19T14:14:23;14.30;;;2.70;;
44578;SDS011;37422;51.402;0.016;2022-08-19T14:16:51;10.48;;;3.05;;
44578;SDS011;37422;51.402;0.016;2022-08-19T14:19:19;8.05;;;2.03;;
44578;SDS011;37422;51.402;0.016;2022-08-19T14:21:49;10.32;;;2.28;;
44578;SDS011;37422;51.402;0.016;2022-08-19T14:24:17;6.50;;;2.22;;
44578;SDS011;37422;51.402;0.016;2022-08-19T14:26:44;12.13;;;2.08;;
44578;SDS011;37422;51.402;0.016;2022-08-19T14:29:15;10.90;;;2.13;;
44578;SDS011;37422;51.402;0.016;2022-08-19T14:31:48;7.65;;;2.33;;
44578;SDS011;37422;51.402;0.016;2022-08-19T14:34:15;10.15;;;2.47;;
44578;SDS011;37422;51.402;0.016;2022-08-19T14:36:46;5.28;;;1.70;;
44578;SDS011;37422;51.402;0.016;2022-08-19T14:39:15;5.82;;;2.10;;
44578;SDS011;37422;51.402;0.016;2022-08-19T14:41:43;7.20;;;2.10;;
44578;SDS011;37422;51.402;0.016;2022-08-19T14:44:17;12.45;;;2.60;;
44578;SDS011;37422;51.402;0.016;2022-08-19T14:46:45;10.57;;;2.50;;
44578;SDS011;37422;51.402;0.016;2022-08-19T14:49:15;7.65;;;1.58;;
44578;SDS011;37422;51.402;0.016;2022-08-19T14:51:43;7.85;;;2.22;;
44578;SDS011;37422;51.402;0.016;2022-08-19T14:54:15;13.32;;;2.35;;
44578;SDS011;37422;51.402;0.016;2022-08-19T14:56:43;7.68;;;1.85;;
44578;SDS011;37422;51.402;0.016;2022-08-19T14:59:11;7.15;;;2.33;;
44578;SDS011;37422;51.402;0.016;2022-08-19T15:01:53;6.43;;;1.95;;
44578;SDS011;37422;51.402;0.016;2022-08-19T15:04:21;10.15;;;2.45;;
44578;SDS011;37422;51.402;0.016;2022-08-19T15:06:51;8.93;;;2.50;;
44578;SDS011;37422;51.402;0.016;2022-08-19T15:09:19;7.00;;;2.15;;
44578;SDS011;37422;51.402;0.016;2022-08-19T15:11:48;12.10;;;2.25;;
44578;SDS011;37422;51.402;0.016;2022-08-19T15:16:46;10.10;;;2.20;;
44578;SDS011;37422;51.402;0.016;2022-08-19T15:19:16;8.18;;;1.85;;
44578;SDS011;37422;51.402;0.016;2022-08-19T15:21:44;10.90;;;2.53;;
44578;SDS011;37422;51.402;0.016;2022-08-19T15:24:15;10.02;;;1.90;;
44578;SDS011;37422;51.402;0.016;2022-08-19T15:26:52;10.35;;;2.30;;
44578;SDS011;37422;51.402;0.016;2022-08-19T15:29:22;14.25;;;2.90;;
44578;SDS011;37422;51.402;0.016;2022-08-19T15:31:51;10.23;;;2.30;;
44578;SDS011;37422;51.402;0.016;2022-08-19T15:34:23;13.35;;;2.40;;
44578;SDS011;37422;51.402;0.016;2022-08-19T15:36:52;13.82;;;2.70;;
44578;SDS011;37422;51.402;0.016;2022-08-19T15:39:19;10.45;;;2.50;;
44578;SDS011;37422;51.402;0.016;2022-08-19T15:41:50;8.02;;;1.92;;
44578;SDS011;37422;51.402;0.016;2022-08-19T15:44:19;13.68;;;2.28;;
44578;SDS011;37422;51.402;0.016;2022-08-19T15:46:48;9.82;;;2.80;;